createdAt,value
2023-02-09T00:00:17.025Z,43.42
2023-02-09T00:02:43.889Z,44.44
2023-02-09T00:05:11.253Z,43.26
2023-02-09T00:07:37.769Z,43.44
2023-02-09T00:10:05.927Z,43.80
2023-02-09T00:12:51.320Z,43.64
2023-02-09T00:15:17.866Z,44.49
2023-02-09T00:17:44.343Z,43.39
2023-02-09T00:20:11.121Z,43.96
2023-02-09T00:22:37.774Z,43.36
2023-02-09T00:25:04.585Z,44.48
2023-02-09T00:27:32.287Z,44.38
2023-02-09T00:29:58.862Z,44.15
2023-02-09T00:32:25.412Z,43.95
2023-02-09T00:34:51.924Z,43.27
2023-02-09T00:37:18.422Z,43.99
2023-02-09T00:39:45.004Z,43.41
2023-02-09T00:42:11.596Z,43.26
2023-02-09T00:44:40.587Z,43.28
2023-02-09T00:47:08.720Z,43.24
2023-02-09T00:49:35.735Z,43.09
2023-02-09T00:52:02.775Z,43.47
2023-02-09T00:54:29.482Z,43.55
2023-02-09T00:56:56.063Z,43.63
2023-02-09T00:59:22.601Z,43.60
2023-02-09T01:01:49.096Z,43.35
2023-02-09T01:04:15.624Z,43.57
2023-02-09T01:06:42.191Z,43.96
2023-02-09T01:09:08.742Z,43.33
2023-02-09T01:11:35.272Z,43.31
2023-02-09T01:14:04.379Z,44.11
2023-02-09T01:16:31.761Z,43.73
2023-02-09T01:19:00.748Z,44.39
2023-02-09T01:21:27.698Z,43.11
2023-02-09T01:23:54.262Z,44.18
2023-02-09T01:26:21.132Z,43.64
2023-02-09T01:28:52.958Z,44.23
2023-02-09T01:31:28.646Z,43.98
2023-02-09T01:33:56.810Z,43.51
2023-02-09T01:36:24.862Z,43.88
2023-02-09T01:38:54.806Z,43.29
2023-02-09T01:41:21.585Z,43.76
2023-02-09T01:43:59.083Z,44.11
2023-02-09T01:46:28.584Z,44.03
2023-02-09T01:49:17.458Z,44.10
2023-02-09T01:52:04.742Z,43.22
2023-02-09T01:54:43.128Z,43.35
2023-02-09T01:57:20.581Z,43.29
2023-02-09T01:59:53.560Z,43.16
2023-02-09T02:02:22.189Z,43.15
2023-02-09T02:04:49.955Z,43.96
2023-02-09T02:07:28.051Z,43.28
2023-02-09T02:09:54.927Z,43.26
2023-02-09T02:12:23.360Z,43.29
2023-02-09T02:14:49.939Z,42.95
2023-02-09T02:17:34.591Z,43.38
2023-02-09T02:20:19.769Z,42.78
2023-02-09T02:23:20.469Z,43.76
2023-02-09T02:26:08.441Z,42.85
2023-02-09T02:28:45.468Z,43.38
2023-02-09T02:31:17.904Z,42.68
2023-02-09T02:34:15.003Z,43.64
2023-02-09T02:37:15.564Z,42.71
2023-02-09T02:40:38.150Z,43.22
2023-02-09T02:43:27.680Z,42.85
2023-02-09T02:46:10.995Z,43.55
2023-02-09T02:48:41.556Z,43.18
2023-02-09T02:51:14.676Z,43.59
2023-02-09T02:53:45.013Z,42.92
2023-02-09T02:56:25.750Z,42.72
2023-02-09T02:58:56.502Z,43.75
2023-02-09T03:01:27.596Z,43.61
2023-02-09T03:03:55.529Z,42.94
2023-02-09T03:06:22.078Z,43.65
2023-02-09T03:08:56.728Z,43.11
2023-02-09T03:11:27.767Z,43.37
2023-02-09T03:13:56.945Z,43.93
2023-02-09T03:17:02.971Z,43.77
2023-02-09T03:19:40.078Z,43.71
2023-02-09T03:22:17.667Z,42.86
2023-02-09T03:24:55.355Z,42.64
2023-02-09T03:27:29.318Z,43.79
2023-02-09T03:29:59.697Z,42.71
2023-02-09T03:32:27.278Z,43.67
2023-02-09T03:34:57.239Z,43.24
2023-02-09T03:37:24.422Z,42.68
2023-02-09T03:39:50.992Z,43.60
2023-02-09T03:42:17.524Z,43.30
2023-02-09T03:44:44.016Z,43.16
2023-02-09T03:47:10.566Z,43.29
2023-02-09T03:49:40.100Z,42.31
2023-02-09T03:52:09.432Z,42.50
2023-02-09T03:54:36.904Z,43.19
2023-02-09T03:57:04.689Z,42.46
2023-02-09T03:59:35.333Z,42.29
2023-02-09T04:02:02.185Z,42.72
2023-02-09T04:04:28.780Z,42.54
2023-02-09T04:06:56.198Z,43.35
2023-02-09T04:09:23.354Z,43.10
2023-02-09T04:11:49.893Z,42.58
2023-02-09T04:14:16.387Z,43.26
2023-02-09T04:16:43.184Z,42.37
2023-02-09T04:19:10.129Z,43.35
2023-02-09T04:21:38.590Z,42.58
2023-02-09T04:24:05.992Z,43.47
2023-02-09T04:26:33.031Z,42.61
2023-02-09T04:28:59.522Z,42.55
2023-02-09T04:31:26.159Z,43.06
2023-02-09T04:33:52.763Z,43.24
2023-02-09T04:36:19.284Z,42.30
2023-02-09T04:38:45.813Z,42.93
2023-02-09T04:41:12.360Z,42.22
2023-02-09T04:43:38.855Z,43.14
2023-02-09T04:46:05.405Z,42.27
2023-02-09T04:48:31.980Z,42.53
2023-02-09T04:50:58.552Z,43.12
2023-02-09T04:53:25.526Z,43.06
2023-02-09T04:55:52.550Z,43.70
2023-02-09T04:58:39.404Z,43.77
2023-02-09T05:01:07.149Z,43.55
2023-02-09T05:03:34.292Z,42.79
2023-02-09T05:06:03.495Z,42.94
2023-02-09T05:08:30.270Z,43.52
2023-02-09T05:10:57.118Z,43.45
2023-02-09T05:13:25.407Z,43.63
2023-02-09T05:15:52.192Z,43.36
2023-02-09T05:18:18.846Z,43.46
2023-02-09T05:20:46.146Z,42.99
2023-02-09T05:23:13.270Z,42.79
2023-02-09T05:25:40.298Z,43.55
2023-02-09T05:28:07.162Z,43.27
2023-02-09T05:30:34.151Z,42.65
2023-02-09T05:33:00.674Z,43.08
2023-02-09T05:35:27.213Z,43.32
2023-02-09T05:37:53.730Z,42.54
2023-02-09T05:40:20.273Z,43.07
2023-02-09T05:42:46.776Z,42.88
2023-02-09T05:45:13.387Z,42.75
2023-02-09T05:47:39.889Z,42.94
2023-02-09T05:50:06.549Z,42.93
2023-02-09T05:52:33.114Z,42.85
2023-02-09T05:54:59.608Z,43.22
2023-02-09T05:57:26.123Z,43.15
2023-02-09T05:59:52.982Z,42.34
2023-02-09T06:02:19.636Z,43.09
2023-02-09T06:04:46.215Z,42.41
2023-02-09T06:07:12.694Z,42.29
2023-02-09T06:09:39.193Z,43.10
2023-02-09T06:12:05.826Z,43.26
2023-02-09T06:14:32.298Z,43.15
2023-02-09T06:16:59.231Z,42.77
2023-02-09T06:19:25.739Z,42.11
2023-02-09T06:21:52.213Z,42.92
2023-02-09T06:24:18.777Z,42.76
2023-02-09T06:26:45.492Z,42.80
2023-02-09T06:29:12.019Z,43.04
2023-02-09T06:31:38.752Z,42.93
2023-02-09T06:34:05.837Z,41.85
2023-02-09T06:36:32.769Z,42.87
2023-02-09T06:38:59.294Z,42.71
2023-02-09T06:41:25.932Z,42.31
2023-02-09T06:43:52.415Z,42.54
2023-02-09T06:46:18.949Z,41.77
2023-02-09T06:48:45.516Z,42.46
2023-02-09T06:51:14.186Z,42.00
2023-02-09T06:53:42.958Z,42.69
2023-02-09T06:56:11.261Z,41.85
2023-02-09T06:58:39.985Z,41.69
2023-02-09T07:01:09.948Z,41.60
2023-02-09T07:03:37.522Z,41.93
2023-02-09T07:06:09.138Z,42.06
2023-02-09T07:08:36.689Z,41.82
2023-02-09T07:11:08.769Z,42.51
2023-02-09T07:13:35.712Z,42.58
2023-02-09T07:16:04.349Z,42.11
2023-02-09T07:18:30.956Z,41.94
2023-02-09T07:20:59.492Z,41.78
2023-02-09T07:23:26.678Z,42.40
2023-02-09T07:25:53.488Z,42.06
2023-02-09T07:28:20.753Z,42.35
2023-02-09T07:30:52.189Z,41.64
2023-02-09T07:33:19.600Z,42.20
2023-02-09T07:35:47.205Z,41.84
2023-02-09T07:38:14.106Z,41.79
2023-02-09T07:40:46.450Z,42.18
2023-02-09T07:43:13.956Z,41.73
2023-02-09T07:45:41.500Z,41.91
2023-02-09T07:48:10.239Z,41.97
2023-02-09T07:50:37.006Z,42.42
2023-02-09T07:53:03.591Z,41.93
2023-02-09T07:55:30.233Z,41.93
2023-02-09T07:57:57.010Z,41.67
2023-02-09T08:00:24.325Z,42.04
2023-02-09T08:02:51.079Z,42.13
2023-02-09T08:05:25.919Z,41.61
2023-02-09T08:07:52.908Z,42.17
2023-02-09T08:10:19.869Z,42.05
2023-02-09T08:13:02.575Z,41.15
2023-02-09T08:15:38.284Z,41.22
2023-02-09T08:18:12.826Z,41.82
2023-02-09T08:20:40.218Z,41.29
2023-02-09T08:23:14.367Z,41.66
2023-02-09T08:25:41.055Z,41.32
2023-02-09T08:28:08.837Z,42.02
2023-02-09T08:30:35.956Z,41.25
2023-02-09T08:33:02.472Z,41.36
2023-02-09T08:35:30.752Z,41.45
2023-02-09T08:38:02.196Z,41.27
2023-02-09T08:40:30.020Z,40.92
2023-02-09T08:42:56.628Z,41.22
2023-02-09T08:45:23.366Z,41.01
2023-02-09T08:47:50.124Z,41.84
2023-02-09T08:50:16.779Z,41.73
2023-02-09T08:52:43.404Z,41.68
2023-02-09T08:55:10.165Z,41.04
2023-02-09T08:57:44.011Z,41.57
2023-02-09T09:00:11.412Z,40.63
2023-02-09T09:02:37.919Z,40.84
2023-02-09T09:05:04.674Z,41.12
2023-02-09T09:07:31.319Z,40.52
2023-02-09T09:09:57.839Z,40.48
2023-02-09T09:12:24.580Z,41.05
2023-02-09T09:14:51.366Z,40.54
2023-02-09T09:17:17.908Z,41.57
2023-02-09T09:19:44.486Z,41.32
2023-02-09T09:22:11.047Z,40.30
2023-02-09T09:24:40.694Z,41.15
2023-02-09T09:27:10.402Z,40.89
2023-02-09T09:29:40.002Z,40.85
2023-02-09T09:32:07.766Z,40.60
2023-02-09T09:34:34.463Z,40.32
2023-02-09T09:37:00.964Z,40.80
2023-02-09T09:39:27.514Z,40.27
2023-02-09T09:41:59.348Z,40.50
2023-02-09T09:44:44.741Z,40.89
2023-02-09T09:47:17.394Z,40.50
2023-02-09T09:49:44.228Z,40.91
2023-02-09T09:52:18.295Z,40.80
2023-02-09T09:54:45.281Z,39.99
2023-02-09T09:57:27.264Z,40.17
2023-02-09T09:59:55.073Z,40.64
2023-02-09T10:02:28.712Z,39.94
2023-02-09T10:05:02.845Z,40.02
2023-02-09T10:07:32.640Z,39.82
2023-02-09T10:10:04.876Z,40.44
2023-02-09T10:12:38.298Z,40.38
2023-02-09T10:15:37.259Z,39.89
2023-02-09T10:18:13.040Z,39.42
2023-02-09T10:20:45.630Z,39.26
2023-02-09T10:23:21.130Z,39.14
2023-02-09T10:25:50.710Z,40.05
2023-02-09T10:28:25.677Z,39.20
2023-02-09T10:30:54.540Z,39.76
2023-02-09T10:33:21.199Z,39.84
2023-02-09T10:36:08.712Z,39.32
2023-02-09T10:38:39.922Z,39.13
2023-02-09T10:41:11.292Z,40.10
2023-02-09T10:43:37.850Z,39.48
2023-02-09T10:46:13.252Z,39.16
2023-02-09T10:48:45.639Z,40.08
2023-02-09T10:51:29.748Z,40.03
2023-02-09T10:54:00.143Z,39.75
2023-02-09T10:56:41.780Z,40.12
2023-02-09T10:59:23.313Z,39.48
2023-02-09T11:02:01.790Z,40.31
2023-02-09T11:04:39.858Z,39.59
2023-02-09T11:07:12.164Z,39.63
2023-02-09T11:09:50.339Z,39.20
2023-02-09T11:12:17.223Z,39.39
2023-02-09T11:14:44.036Z,39.25
2023-02-09T11:17:17.271Z,38.77
2023-02-09T11:20:25.906Z,39.68
2023-02-09T11:23:20.377Z,39.53
2023-02-09T11:26:04.002Z,38.60
2023-02-09T11:28:33.523Z,38.70
2023-02-09T11:31:24.342Z,39.28
2023-02-09T11:34:28.370Z,38.62
2023-02-09T11:37:06.976Z,38.52
2023-02-09T11:39:55.731Z,38.80
2023-02-09T11:42:45.539Z,39.45
2023-02-09T11:45:24.201Z,38.83
2023-02-09T11:48:09.250Z,38.91
2023-02-09T11:50:56.156Z,39.56
2023-02-09T11:53:33.416Z,39.26
2023-02-09T11:56:06.033Z,39.16
2023-02-09T11:59:08.698Z,39.56
2023-02-09T12:01:55.370Z,40.04
2023-02-09T12:04:31.239Z,38.97
2023-02-09T12:07:02.599Z,40.23
2023-02-09T12:10:10.989Z,39.10
2023-02-09T12:12:48.756Z,40.06
2023-02-09T12:15:22.809Z,40.00
2023-02-09T12:18:01.137Z,39.99
2023-02-09T12:20:36.686Z,39.17
2023-02-09T12:23:15.859Z,39.85
2023-02-09T12:25:51.671Z,38.79
2023-02-09T12:28:24.023Z,38.88
2023-02-09T12:30:51.017Z,39.02
2023-02-09T12:33:23.254Z,38.80
2023-02-09T12:36:03.594Z,39.04
2023-02-09T12:38:51.597Z,39.59
2023-02-09T12:41:29.267Z,39.67
2023-02-09T12:44:10.998Z,39.09
2023-02-09T12:46:43.238Z,39.11
2023-02-09T12:49:12.682Z,39.21
2023-02-09T12:51:54.876Z,40.11
2023-02-09T12:54:27.322Z,39.33
2023-02-09T12:56:54.696Z,39.20
2023-02-09T12:59:24.643Z,39.50
2023-02-09T13:02:06.141Z,39.26
2023-02-09T13:05:05.662Z,39.44
2023-02-09T13:08:00.402Z,39.97
2023-02-09T13:10:29.814Z,39.69
2023-02-09T13:13:12.551Z,39.36
2023-02-09T13:15:51.247Z,40.50
2023-02-09T13:18:37.954Z,40.22
2023-02-09T13:21:13.459Z,40.28
2023-02-09T13:23:56.927Z,40.08
2023-02-09T13:26:26.983Z,40.61
2023-02-09T13:29:21.606Z,39.84
2023-02-09T13:32:13.066Z,39.56
2023-02-09T13:35:04.440Z,40.14
2023-02-09T13:37:46.574Z,39.92
2023-02-09T13:40:34.771Z,39.96
2023-02-09T13:43:16.136Z,40.40
2023-02-09T13:45:54.965Z,40.16
2023-02-09T13:48:36.815Z,41.05
2023-02-09T13:51:23.659Z,41.11
2023-02-09T13:53:58.542Z,40.42
2023-02-09T13:56:25.657Z,40.99
2023-02-09T13:58:53.328Z,40.27
2023-02-09T14:01:29.902Z,41.34
2023-02-09T14:03:58.939Z,40.66
2023-02-09T14:06:44.601Z,40.81
2023-02-09T14:09:26.896Z,40.45
2023-02-09T14:12:05.371Z,41.42
2023-02-09T14:14:57.876Z,41.17
2023-02-09T14:17:32.521Z,40.90
2023-02-09T14:20:00.072Z,40.80
2023-02-09T14:22:37.956Z,40.63
2023-02-09T14:25:13.751Z,40.78
2023-02-09T14:27:45.566Z,41.69
2023-02-09T14:30:17.053Z,41.44
2023-02-09T14:32:48.367Z,41.03
2023-02-09T14:35:20.520Z,41.00
2023-02-09T14:37:48.513Z,41.35
2023-02-09T14:40:27.040Z,40.70
2023-02-09T14:43:01.673Z,40.88
2023-02-09T14:45:35.830Z,41.77
2023-02-09T14:48:02.400Z,41.85
2023-02-09T14:50:28.958Z,41.62
2023-02-09T14:53:06.707Z,41.29
2023-02-09T14:55:40.095Z,41.67
2023-02-09T14:58:28.952Z,42.14
2023-02-09T15:00:57.724Z,41.10
2023-02-09T15:03:24.400Z,41.80
2023-02-09T15:06:00.646Z,41.97
2023-02-09T15:08:30.148Z,40.97
2023-02-09T15:11:29.232Z,41.36
2023-02-09T15:14:03.838Z,41.87
2023-02-09T15:16:31.539Z,42.12
2023-02-09T15:18:58.219Z,41.06
2023-02-09T15:21:24.765Z,41.25
2023-02-09T15:23:51.293Z,41.21
2023-02-09T15:26:22.624Z,41.84
2023-02-09T15:28:49.170Z,41.37
2023-02-09T15:31:16.382Z,42.40
2023-02-09T15:33:43.025Z,41.34
2023-02-09T15:36:16.856Z,42.27
2023-02-09T15:38:43.243Z,41.45
2023-02-09T15:41:29.043Z,41.46
2023-02-09T15:44:14.298Z,42.01
2023-02-09T15:46:59.605Z,41.39
2023-02-09T15:49:26.183Z,42.51
2023-02-09T15:51:52.799Z,42.21
2023-02-09T15:54:21.873Z,41.90
2023-02-09T15:56:48.385Z,42.33
2023-02-09T15:59:20.898Z,41.84
2023-02-09T16:01:47.848Z,42.27
2023-02-09T16:04:14.996Z,41.80
2023-02-09T16:06:53.318Z,42.54
2023-02-09T16:09:27.571Z,42.01
2023-02-09T16:11:54.372Z,41.77
2023-02-09T16:14:23.308Z,41.91
2023-02-09T16:16:50.118Z,42.65
2023-02-09T16:19:17.081Z,41.69
2023-02-09T16:21:50.657Z,42.35
2023-02-09T16:24:40.984Z,42.83
2023-02-09T16:27:27.841Z,42.87
2023-02-09T16:29:55.193Z,43.00
2023-02-09T16:32:23.677Z,41.95
2023-02-09T16:34:51.089Z,42.29
2023-02-09T16:37:23.673Z,41.83
2023-02-09T16:39:50.264Z,42.39
2023-02-09T16:42:16.953Z,42.65
2023-02-09T16:44:43.505Z,42.87
2023-02-09T16:47:20.421Z,42.85
2023-02-09T16:50:02.601Z,42.80
2023-02-09T16:52:30.362Z,42.78
2023-02-09T16:54:59.853Z,42.19
2023-02-09T16:57:27.990Z,42.79
2023-02-09T16:59:55.208Z,42.90
2023-02-09T17:02:28.036Z,43.01
2023-02-09T17:04:54.607Z,42.81
2023-02-09T17:07:24.401Z,43.17
2023-02-09T17:09:51.162Z,42.88
2023-02-09T17:12:17.627Z,43.29
2023-02-09T17:14:44.439Z,43.08
2023-02-09T17:17:18.075Z,42.24
2023-02-09T17:19:48.126Z,42.47
2023-02-09T17:22:15.410Z,43.26
2023-02-09T17:24:41.917Z,42.95
2023-02-09T17:27:09.703Z,42.62
2023-02-09T17:29:36.324Z,43.23
2023-02-09T17:32:03.464Z,42.49
2023-02-09T17:34:30.305Z,43.45
2023-02-09T17:36:58.002Z,43.37
2023-02-09T17:39:25.184Z,43.59
2023-02-09T17:41:52.056Z,42.51
2023-02-09T17:44:43.706Z,42.92
2023-02-09T17:47:17.060Z,42.70
2023-02-09T17:49:43.720Z,42.84
2023-02-09T17:52:18.030Z,43.32
2023-02-09T17:54:45.463Z,43.30
2023-02-09T17:57:14.230Z,42.99
2023-02-09T17:59:40.821Z,43.47
2023-02-09T18:02:25.872Z,43.22
2023-02-09T18:04:52.424Z,43.89
2023-02-09T18:07:20.838Z,42.92
2023-02-09T18:09:47.605Z,43.29
2023-02-09T18:12:20.425Z,42.83
2023-02-09T18:14:47.065Z,43.50
2023-02-09T18:17:13.777Z,43.20
2023-02-09T18:19:40.276Z,42.81
2023-02-09T18:22:06.788Z,43.85
2023-02-09T18:24:35.189Z,42.99
2023-02-09T18:27:02.248Z,44.07
2023-02-09T18:29:30.036Z,42.97
2023-02-09T18:31:59.026Z,43.00
2023-02-09T18:34:26.223Z,43.15
2023-02-09T18:36:52.741Z,43.09
2023-02-09T18:39:19.461Z,44.16
2023-02-09T18:41:48.338Z,43.99
2023-02-09T18:44:14.870Z,43.10
2023-02-09T18:46:43.205Z,44.16
2023-02-09T18:49:12.356Z,43.50
2023-02-09T18:51:38.895Z,43.90
2023-02-09T18:54:05.641Z,43.57
2023-02-09T18:56:32.291Z,43.07
2023-02-09T18:58:58.970Z,44.31
2023-02-09T19:01:25.540Z,43.49
2023-02-09T19:03:53.453Z,44.08
2023-02-09T19:06:21.347Z,43.34
2023-02-09T19:08:50.138Z,44.29
2023-02-09T19:11:19.284Z,43.45
2023-02-09T19:14:08.772Z,43.35
2023-02-09T19:16:36.657Z,43.58
2023-02-09T19:19:03.600Z,44.38
2023-02-09T19:21:31.764Z,43.42
2023-02-09T19:23:58.336Z,43.39
2023-02-09T19:26:24.827Z,44.12
2023-02-09T19:28:51.440Z,43.38
2023-02-09T19:31:18.611Z,44.07
2023-02-09T19:33:45.330Z,43.48
2023-02-09T19:36:12.339Z,44.52
2023-02-09T19:38:38.892Z,44.63
2023-02-09T19:41:11.787Z,44.38
2023-02-09T19:43:39.929Z,43.48
2023-02-09T19:46:07.558Z,43.86
2023-02-09T19:48:34.165Z,43.53
2023-02-09T19:51:00.856Z,43.59
2023-02-09T19:53:27.977Z,43.84
2023-02-09T19:55:54.805Z,44.25
2023-02-09T19:58:21.734Z,44.36
2023-02-09T20:00:49.773Z,44.68
2023-02-09T20:03:17.076Z,43.57
2023-02-09T20:05:44.744Z,43.48
2023-02-09T20:08:15.698Z,43.52
2023-02-09T20:10:44.265Z,43.43
2023-02-09T20:13:12.861Z,44.29
2023-02-09T20:15:44.106Z,44.00
2023-02-09T20:18:12.637Z,44.29
2023-02-09T20:20:41.724Z,43.64
2023-02-09T20:23:08.862Z,44.03
2023-02-09T20:25:35.445Z,44.02
2023-02-09T20:28:02.139Z,43.86
2023-02-09T20:30:28.732Z,43.67
2023-02-09T20:32:55.272Z,43.94
2023-02-09T20:35:21.818Z,43.60
2023-02-09T20:37:48.551Z,43.74
2023-02-09T20:40:15.328Z,44.65
2023-02-09T20:43:00.466Z,44.45
2023-02-09T20:45:45.760Z,43.93
2023-02-09T20:48:13.649Z,43.90
2023-02-09T20:50:40.238Z,44.27
2023-02-09T20:53:06.905Z,44.67
2023-02-09T20:55:33.476Z,43.97
2023-02-09T20:58:00.019Z,43.91
2023-02-09T21:00:26.775Z,44.77
2023-02-09T21:02:53.431Z,44.73
2023-02-09T21:05:20.087Z,45.05
2023-02-09T21:07:46.702Z,44.03
2023-02-09T21:10:13.265Z,44.85
2023-02-09T21:12:39.985Z,44.45
2023-02-09T21:15:06.961Z,44.86
2023-02-09T21:17:33.543Z,44.83
2023-02-09T21:20:00.190Z,44.09
2023-02-09T21:22:26.783Z,44.65
2023-02-09T21:24:53.395Z,45.07
2023-02-09T21:27:20.470Z,44.90
2023-02-09T21:29:47.101Z,44.63
2023-02-09T21:32:13.737Z,43.93
2023-02-09T21:34:40.233Z,44.02
2023-02-09T21:37:10.195Z,45.16
2023-02-09T21:39:36.799Z,44.15
2023-02-09T21:42:22.202Z,44.76
2023-02-09T21:44:48.813Z,45.13
2023-02-09T21:47:15.460Z,44.13
2023-02-09T21:49:41.944Z,45.17
2023-02-09T21:52:08.458Z,44.59
2023-02-09T21:54:34.955Z,44.86
2023-02-09T21:57:02.185Z,44.39
2023-02-09T21:59:29.380Z,44.46
2023-02-09T22:01:56.441Z,44.27
2023-02-09T22:04:23.090Z,45.16
2023-02-09T22:06:49.954Z,44.62
2023-02-09T22:09:16.552Z,45.22
2023-02-09T22:11:43.075Z,44.78
2023-02-09T22:14:09.587Z,44.97
2023-02-09T22:16:36.211Z,45.23
2023-02-09T22:19:03.322Z,44.92
2023-02-09T22:21:29.837Z,44.98
2023-02-09T22:23:56.401Z,44.59
2023-02-09T22:26:23.040Z,44.28
2023-02-09T22:28:49.755Z,45.33
2023-02-09T22:31:18.624Z,44.94
2023-02-09T22:33:45.457Z,44.59
2023-02-09T22:36:14.836Z,45.12
2023-02-09T22:38:41.394Z,45.16
2023-02-09T22:41:22.420Z,44.92
2023-02-09T22:43:59.213Z,44.26
2023-02-09T22:46:29.120Z,44.50
2023-02-09T22:48:57.793Z,45.00
2023-02-09T22:51:26.901Z,45.25
2023-02-09T22:53:53.663Z,45.32
2023-02-09T22:56:20.564Z,45.21
2023-02-09T22:58:47.380Z,44.75
2023-02-09T23:01:14.017Z,44.52
2023-02-09T23:03:41.074Z,44.51
2023-02-09T23:06:10.816Z,45.45
2023-02-09T23:08:37.370Z,45.19
2023-02-09T23:11:06.713Z,44.45
2023-02-09T23:13:34.833Z,44.58
2023-02-09T23:16:19.567Z,45.13
2023-02-09T23:18:51.838Z,45.08
2023-02-09T23:21:20.222Z,45.43
2023-02-09T23:23:46.779Z,44.60
2023-02-09T23:26:14.792Z,44.95
2023-02-09T23:28:41.491Z,44.52
2023-02-09T23:31:13.373Z,44.40
2023-02-09T23:33:40.244Z,45.21
2023-02-09T23:36:10.081Z,45.44
2023-02-09T23:38:37.022Z,45.32
2023-02-09T23:41:08.524Z,44.68
2023-02-09T23:43:36.020Z,44.44
2023-02-09T23:46:08.884Z,44.48
2023-02-09T23:48:35.523Z,45.04
2023-02-09T23:51:11.281Z,45.29
2023-02-09T23:53:37.773Z,45.28
2023-02-09T23:56:04.692Z,44.53
2023-02-09T23:58:36.709Z,45.05
